In Rescue
 
Open Full Screen Window  High Contrast Mode
September 21, 2020 9:55 PM CDT
Weather Information
Wind Direction
  ---
Wind Speed
  00 kt (0 mph)
Wind Gust
  00 kt (0 mph)
Altimeter
30.01 in
Visibility
10 SM
Temperature
16° C
61° F
Dewpoint
12° C
54° F
Humidity
77%
1hr Rain Fall
00.00 in.
24hr Rain Fall
00.01 in.
Sky Condition
Missing
VFR

METAR KBFW 220255Z AUTO 00000KT 10SM 16/12 A3001 RMK AO2

FAA Disclaimer: The data displayed is for advisory purposes only and is not to be used for flight planning or operations.
Missing Cloud Data